Rye Patch, Nevada
Current Conditions -  °F | °C
As of 12:53 PM on Wednesday 17 Dec 2014 (Local Time) from KLOL Reporting Station
Clear Clear  
Wind Chill: 43°   Ceiling: Unl
Heat Index: 48°   Visibility: 10mi
Dew Point: 30°   Wind: 10mph
Humidity: 50%   Direction: 230°SW
Pressure: 29.93"   Gusts: NA
Location:  40.3545°N, 118.628°W
Report Text: KLOL 172053Z AUTO 23009KT 10SM CLR 09/M01 A2993 RMK AO2 SLP146 T00891011 58016
Loading
Personal Weather Stations






























Interactive Weather Map New forecast layout! Learn more

10-Day Weather Forecast

Advertisements
Track Severe Weather on mobile